sensor_id;sensor_type;location;lat;lon;timestamp;P1;durP1;ratioP1;P2;durP2;ratioP2
40244;SDS011;25963;42.694;23.600;2023-04-02T00:02:45;27.60;;;12.82;;
40244;SDS011;25963;42.694;23.600;2023-04-02T00:07:47;4.35;;;3.28;;
40244;SDS011;25963;42.694;23.600;2023-04-02T00:10:35;3.85;;;2.88;;
40244;SDS011;25963;42.694;23.600;2023-04-02T00:18:01;4.75;;;3.17;;
40244;SDS011;25963;42.694;23.600;2023-04-02T00:20:27;5.15;;;3.78;;
40244;SDS011;25963;42.694;23.600;2023-04-02T00:22:57;5.20;;;3.38;;
40244;SDS011;25963;42.694;23.600;2023-04-02T00:25:25;7.35;;;3.80;;
40244;SDS011;25963;42.694;23.600;2023-04-02T00:27:52;4.72;;;3.08;;
40244;SDS011;25963;42.694;23.600;2023-04-02T00:30:18;4.15;;;3.45;;
40244;SDS011;25963;42.694;23.600;2023-04-02T00:32:44;5.13;;;3.95;;
40244;SDS011;25963;42.694;23.600;2023-04-02T00:35:15;6.43;;;4.32;;
40244;SDS011;25963;42.694;23.600;2023-04-02T00:37:45;6.90;;;4.63;;
40244;SDS011;25963;42.694;23.600;2023-04-02T00:40:15;5.63;;;3.90;;
40244;SDS011;25963;42.694;23.600;2023-04-02T00:42:47;7.28;;;4.25;;
40244;SDS011;25963;42.694;23.600;2023-04-02T00:45:19;7.43;;;4.35;;
40244;SDS011;25963;42.694;23.600;2023-04-02T00:47:46;9.77;;;6.03;;
40244;SDS011;25963;42.694;23.600;2023-04-02T00:52:39;19.50;;;9.90;;
40244;SDS011;25963;42.694;23.600;2023-04-02T00:55:08;17.08;;;9.45;;
40244;SDS011;25963;42.694;23.600;2023-04-02T00:57:42;12.35;;;7.32;;
40244;SDS011;25963;42.694;23.600;2023-04-02T01:02:43;10.38;;;5.05;;
40244;SDS011;25963;42.694;23.600;2023-04-02T01:05:41;6.97;;;3.90;;
40244;SDS011;25963;42.694;23.600;2023-04-02T01:08:16;8.45;;;3.78;;
40244;SDS011;25963;42.694;23.600;2023-04-02T01:14:11;5.13;;;3.08;;
40244;SDS011;25963;42.694;23.600;2023-04-02T01:16:21;4.03;;;2.50;;
40244;SDS011;25963;42.694;23.600;2023-04-02T01:24:42;2.25;;;1.30;;
40244;SDS011;25963;42.694;23.600;2023-04-02T01:30:08;1.88;;;1.10;;
40244;SDS011;25963;42.694;23.600;2023-04-02T01:32:36;3.25;;;1.30;;
40244;SDS011;25963;42.694;23.600;2023-04-02T01:35:03;3.30;;;1.15;;
40244;SDS011;25963;42.694;23.600;2023-04-02T01:45:48;4.22;;;3.20;;
40244;SDS011;25963;42.694;23.600;2023-04-02T01:48:18;6.30;;;4.07;;
40244;SDS011;25963;42.694;23.600;2023-04-02T01:50:48;7.30;;;5.00;;
40244;SDS011;25963;42.694;23.600;2023-04-02T01:53:19;6.95;;;4.80;;
40244;SDS011;25963;42.694;23.600;2023-04-02T01:55:52;4.90;;;3.00;;
40244;SDS011;25963;42.694;23.600;2023-04-02T02:03:47;19.58;;;8.98;;
40244;SDS011;25963;42.694;23.600;2023-04-02T02:06:15;9.48;;;5.43;;
40244;SDS011;25963;42.694;23.600;2023-04-02T02:11:18;14.52;;;7.85;;
40244;SDS011;25963;42.694;23.600;2023-04-02T02:13:55;11.80;;;6.57;;
40244;SDS011;25963;42.694;23.600;2023-04-02T02:16:26;17.25;;;9.60;;
40244;SDS011;25963;42.694;23.600;2023-04-02T02:18:57;11.30;;;6.00;;
40244;SDS011;25963;42.694;23.600;2023-04-02T02:21:37;8.35;;;5.43;;
40244;SDS011;25963;42.694;23.600;2023-04-02T02:24:05;13.90;;;7.65;;
40244;SDS011;25963;42.694;23.600;2023-04-02T02:26:40;7.95;;;4.82;;
40244;SDS011;25963;42.694;23.600;2023-04-02T02:29:09;6.65;;;4.72;;
40244;SDS011;25963;42.694;23.600;2023-04-02T02:31:38;8.88;;;4.97;;
40244;SDS011;25963;42.694;23.600;2023-04-02T02:34:07;7.60;;;5.15;;
40244;SDS011;25963;42.694;23.600;2023-04-02T02:36:47;11.00;;;7.32;;
40244;SDS011;25963;42.694;23.600;2023-04-02T02:39:32;197.02;;;68.60;;
40244;SDS011;25963;42.694;23.600;2023-04-02T02:44:36;125.22;;;36.90;;
40244;SDS011;25963;42.694;23.600;2023-04-02T02:47:12;65.97;;;23.85;;
40244;SDS011;25963;42.694;23.600;2023-04-02T02:49:41;31.75;;;10.70;;
40244;SDS011;25963;42.694;23.600;2023-04-02T02:54:35;17.88;;;8.93;;
40244;SDS011;25963;42.694;23.600;2023-04-02T02:57:05;12.80;;;8.25;;
40244;SDS011;25963;42.694;23.600;2023-04-02T02:59:34;12.02;;;7.05;;
40244;SDS011;25963;42.694;23.600;2023-04-02T03:02:01;9.65;;;6.15;;
40244;SDS011;25963;42.694;23.600;2023-04-02T03:04:28;87.60;;;29.42;;
40244;SDS011;25963;42.694;23.600;2023-04-02T03:06:55;125.43;;;39.47;;
40244;SDS011;25963;42.694;23.600;2023-04-02T03:12:28;81.80;;;28.35;;
40244;SDS011;25963;42.694;23.600;2023-04-02T03:17:44;71.95;;;23.67;;
40244;SDS011;25963;42.694;23.600;2023-04-02T03:20:14;423.63;;;137.30;;
40244;SDS011;25963;42.694;23.600;2023-04-02T03:23:31;278.33;;;87.38;;
40244;SDS011;25963;42.694;23.600;2023-04-02T03:25:54;39.08;;;16.73;;
40244;SDS011;25963;42.694;23.600;2023-04-02T03:28:42;330.55;;;100.53;;
40244;SDS011;25963;42.694;23.600;2023-04-02T03:34:15;207.00;;;62.72;;
40244;SDS011;25963;42.694;23.600;2023-04-02T03:37:07;207.77;;;61.53;;
40244;SDS011;25963;42.694;23.600;2023-04-02T03:39:41;179.02;;;56.30;;
40244;SDS011;25963;42.694;23.600;2023-04-02T03:48:01;162.75;;;52.58;;
40244;SDS011;25963;42.694;23.600;2023-04-02T03:50:40;153.90;;;47.13;;
40244;SDS011;25963;42.694;23.600;2023-04-02T03:53:11;104.82;;;32.35;;
40244;SDS011;25963;42.694;23.600;2023-04-02T03:55:38;41.40;;;16.13;;
40244;SDS011;25963;42.694;23.600;2023-04-02T03:58:08;51.63;;;19.80;;
40244;SDS011;25963;42.694;23.600;2023-04-02T04:00:52;84.00;;;33.47;;
40244;SDS011;25963;42.694;23.600;2023-04-02T04:06:01;146.00;;;59.47;;
40244;SDS011;25963;42.694;23.600;2023-04-02T04:08:33;78.30;;;34.65;;
40244;SDS011;25963;42.694;23.600;2023-04-02T04:11:07;61.92;;;23.10;;
40244;SDS011;25963;42.694;23.600;2023-04-02T04:13:45;72.70;;;27.50;;
40244;SDS011;25963;42.694;23.600;2023-04-02T04:16:21;61.33;;;23.20;;
40244;SDS011;25963;42.694;23.600;2023-04-02T04:19:29;56.63;;;22.42;;
40244;SDS011;25963;42.694;23.600;2023-04-02T04:21:46;55.83;;;18.45;;
40244;SDS011;25963;42.694;23.600;2023-04-02T04:24:22;32.38;;;12.73;;
40244;SDS011;25963;42.694;23.600;2023-04-02T04:26:56;38.95;;;15.60;;
40244;SDS011;25963;42.694;23.600;2023-04-02T04:31:56;23.27;;;10.68;;
40244;SDS011;25963;42.694;23.600;2023-04-02T04:34:40;17.80;;;8.02;;
40244;SDS011;25963;42.694;23.600;2023-04-02T04:37:22;19.90;;;9.25;;
40244;SDS011;25963;42.694;23.600;2023-04-02T04:39:56;21.63;;;8.45;;
40244;SDS011;25963;42.694;23.600;2023-04-02T04:42:29;130.85;;;33.75;;
40244;SDS011;25963;42.694;23.600;2023-04-02T04:45:05;55.53;;;19.58;;
40244;SDS011;25963;42.694;23.600;2023-04-02T04:48:00;97.63;;;33.20;;
40244;SDS011;25963;42.694;23.600;2023-04-02T04:55:44;134.77;;;43.33;;
40244;SDS011;25963;42.694;23.600;2023-04-02T05:00:53;78.45;;;28.13;;
40244;SDS011;25963;42.694;23.600;2023-04-02T05:05:47;41.15;;;19.27;;
40244;SDS011;25963;42.694;23.600;2023-04-02T05:08:15;34.42;;;17.10;;
40244;SDS011;25963;42.694;23.600;2023-04-02T05:10:50;115.13;;;48.50;;
40244;SDS011;25963;42.694;23.600;2023-04-02T05:13:21;165.70;;;68.68;;
40244;SDS011;25963;42.694;23.600;2023-04-02T05:16:02;327.98;;;138.93;;
40244;SDS011;25963;42.694;23.600;2023-04-02T05:18:38;244.07;;;110.32;;
40244;SDS011;25963;42.694;23.600;2023-04-02T05:26:32;41.08;;;26.02;;
40244;SDS011;25963;42.694;23.600;2023-04-02T05:29:12;41.33;;;19.30;;
40244;SDS011;25963;42.694;23.600;2023-04-02T05:31:48;23.42;;;12.35;;
40244;SDS011;25963;42.694;23.600;2023-04-02T05:34:24;23.45;;;12.00;;
40244;SDS011;25963;42.694;23.600;2023-04-02T05:36:55;182.45;;;64.40;;
40244;SDS011;25963;42.694;23.600;2023-04-02T05:39:23;210.85;;;75.72;;
40244;SDS011;25963;42.694;23.600;2023-04-02T05:42:03;208.20;;;74.50;;
40244;SDS011;25963;42.694;23.600;2023-04-02T05:44:34;236.98;;;84.72;;
40244;SDS011;25963;42.694;23.600;2023-04-02T05:52:32;68.55;;;28.38;;
40244;SDS011;25963;42.694;23.600;2023-04-02T05:57:42;8.73;;;4.70;;
40244;SDS011;25963;42.694;23.600;2023-04-02T06:00:14;10.00;;;6.55;;
40244;SDS011;25963;42.694;23.600;2023-04-02T06:02:55;7.25;;;5.20;;
40244;SDS011;25963;42.694;23.600;2023-04-02T06:05:42;7.72;;;4.65;;
40244;SDS011;25963;42.694;23.600;2023-04-02T06:08:13;3.38;;;2.42;;
40244;SDS011;25963;42.694;23.600;2023-04-02T06:10:49;2.88;;;2.58;;
40244;SDS011;25963;42.694;23.600;2023-04-02T06:13:21;18.70;;;8.20;;
40244;SDS011;25963;42.694;23.600;2023-04-02T06:15:48;5.35;;;3.60;;
40244;SDS011;25963;42.694;23.600;2023-04-02T06:20:47;8.35;;;6.95;;
40244;SDS011;25963;42.694;23.600;2023-04-02T06:31:43;3.53;;;2.78;;
40244;SDS011;25963;42.694;23.600;2023-04-02T06:34:20;4.80;;;3.42;;
40244;SDS011;25963;42.694;23.600;2023-04-02T06:36:47;6.05;;;4.60;;
40244;SDS011;25963;42.694;23.600;2023-04-02T06:39:19;7.28;;;3.60;;
40244;SDS011;25963;42.694;23.600;2023-04-02T06:41:53;5.70;;;4.38;;
40244;SDS011;25963;42.694;23.600;2023-04-02T06:44:23;40.75;;;36.45;;
40244;SDS011;25963;42.694;23.600;2023-04-02T06:46:58;25.92;;;22.15;;
40244;SDS011;25963;42.694;23.600;2023-04-02T06:52:00;3.40;;;2.72;;
40244;SDS011;25963;42.694;23.600;2023-04-02T06:54:28;5.93;;;3.67;;
40244;SDS011;25963;42.694;23.600;2023-04-02T06:56:54;4.60;;;2.40;;
40244;SDS011;25963;42.694;23.600;2023-04-02T06:59:20;2.60;;;2.08;;
40244;SDS011;25963;42.694;23.600;2023-04-02T07:02:03;5.97;;;2.08;;
40244;SDS011;25963;42.694;23.600;2023-04-02T07:04:40;6.00;;;3.22;;
40244;SDS011;25963;42.694;23.600;2023-04-02T07:07:06;2.58;;;1.80;;
40244;SDS011;25963;42.694;23.600;2023-04-02T07:09:31;2.97;;;2.15;;
40244;SDS011;25963;42.694;23.600;2023-04-02T07:11:56;2.50;;;1.90;;
40244;SDS011;25963;42.694;23.600;2023-04-02T07:14:22;4.47;;;2.50;;
40244;SDS011;25963;42.694;23.600;2023-04-02T07:16:47;3.42;;;2.10;;
40244;SDS011;25963;42.694;23.600;2023-04-02T07:19:20;2.78;;;1.92;;
40244;SDS011;25963;42.694;23.600;2023-04-02T07:21:46;4.53;;;2.00;;
40244;SDS011;25963;42.694;23.600;2023-04-02T07:24:12;4.53;;;2.50;;
40244;SDS011;25963;42.694;23.600;2023-04-02T07:26:38;3.17;;;2.47;;
40244;SDS011;25963;42.694;23.600;2023-04-02T07:29:07;5.07;;;2.50;;
40244;SDS011;25963;42.694;23.600;2023-04-02T07:31:33;3.65;;;2.65;;
40244;SDS011;25963;42.694;23.600;2023-04-02T07:33:59;4.40;;;3.30;;
40244;SDS011;25963;42.694;23.600;2023-04-02T07:36:25;4.57;;;2.80;;
40244;SDS011;25963;42.694;23.600;2023-04-02T07:38:52;3.03;;;2.40;;
40244;SDS011;25963;42.694;23.600;2023-04-02T07:41:17;4.40;;;2.72;;
40244;SDS011;25963;42.694;23.600;2023-04-02T07:43:43;5.47;;;3.10;;
40244;SDS011;25963;42.694;23.600;2023-04-02T07:46:10;4.00;;;2.83;;
40244;SDS011;25963;42.694;23.600;2023-04-02T07:48:38;5.75;;;3.45;;
40244;SDS011;25963;42.694;23.600;2023-04-02T07:51:04;4.95;;;3.50;;
40244;SDS011;25963;42.694;23.600;2023-04-02T07:53:38;20.88;;;11.93;;
40244;SDS011;25963;42.694;23.600;2023-04-02T07:56:04;6.43;;;3.60;;
40244;SDS011;25963;42.694;23.600;2023-04-02T07:58:31;29.00;;;17.52;;
40244;SDS011;25963;42.694;23.600;2023-04-02T08:00:58;7.80;;;5.45;;
40244;SDS011;25963;42.694;23.600;2023-04-02T08:03:24;11.98;;;8.60;;
40244;SDS011;25963;42.694;23.600;2023-04-02T08:05:55;7.50;;;4.75;;
40244;SDS011;25963;42.694;23.600;2023-04-02T08:08:21;4.03;;;3.03;;
40244;SDS011;25963;42.694;23.600;2023-04-02T08:10:48;5.57;;;2.97;;
40244;SDS011;25963;42.694;23.600;2023-04-02T08:13:15;4.47;;;3.55;;
40244;SDS011;25963;42.694;23.600;2023-04-02T08:15:41;4.45;;;2.60;;
40244;SDS011;25963;42.694;23.600;2023-04-02T08:18:08;4.63;;;3.03;;
40244;SDS011;25963;42.694;23.600;2023-04-02T08:20:33;6.22;;;3.97;;
40244;SDS011;25963;42.694;23.600;2023-04-02T08:22:59;3.78;;;2.53;;
40244;SDS011;25963;42.694;23.600;2023-04-02T08:25:25;2.70;;;2.15;;
40244;SDS011;25963;42.694;23.600;2023-04-02T08:27:51;3.85;;;1.70;;
40244;SDS011;25963;42.694;23.600;2023-04-02T08:30:16;8.00;;;3.20;;
40244;SDS011;25963;42.694;23.600;2023-04-02T08:32:42;2.72;;;1.90;;
40244;SDS011;25963;42.694;23.600;2023-04-02T08:35:08;3.85;;;1.48;;
40244;SDS011;25963;42.694;23.600;2023-04-02T08:37:36;2.83;;;1.40;;
40244;SDS011;25963;42.694;23.600;2023-04-02T08:40:01;1.83;;;1.10;;
40244;SDS011;25963;42.694;23.600;2023-04-02T08:42:36;5.65;;;1.70;;
40244;SDS011;25963;42.694;23.600;2023-04-02T08:45:29;3.80;;;1.45;;
40244;SDS011;25963;42.694;23.600;2023-04-02T08:48:06;4.07;;;1.58;;
40244;SDS011;25963;42.694;23.600;2023-04-02T08:50:39;5.15;;;2.47;;
40244;SDS011;25963;42.694;23.600;2023-04-02T08:53:09;1.17;;;0.70;;
40244;SDS011;25963;42.694;23.600;2023-04-02T09:00:59;5.30;;;3.35;;
40244;SDS011;25963;42.694;23.600;2023-04-02T09:03:34;4.35;;;1.67;;
40244;SDS011;25963;42.694;23.600;2023-04-02T09:06:07;1.98;;;1.33;;
40244;SDS011;25963;42.694;23.600;2023-04-02T09:08:36;10.93;;;6.20;;
40244;SDS011;25963;42.694;23.600;2023-04-02T09:11:23;17.65;;;8.57;;
40244;SDS011;25963;42.694;23.600;2023-04-02T09:13:54;5.82;;;2.65;;
40244;SDS011;25963;42.694;23.600;2023-04-02T09:16:37;9.65;;;5.28;;
40244;SDS011;25963;42.694;23.600;2023-04-02T09:19:40;14.90;;;9.68;;
40244;SDS011;25963;42.694;23.600;2023-04-02T09:24:58;2.42;;;1.00;;
40244;SDS011;25963;42.694;23.600;2023-04-02T09:27:27;2.65;;;0.60;;
40244;SDS011;25963;42.694;23.600;2023-04-02T09:29:55;0.90;;;0.73;;
40244;SDS011;25963;42.694;23.600;2023-04-02T09:32:34;2.08;;;0.93;;
40244;SDS011;25963;42.694;23.600;2023-04-02T09:35:14;1.75;;;1.15;;
40244;SDS011;25963;42.694;23.600;2023-04-02T09:37:42;2.22;;;1.15;;
40244;SDS011;25963;42.694;23.600;2023-04-02T09:40:18;3.13;;;1.02;;
40244;SDS011;25963;42.694;23.600;2023-04-02T09:42:47;1.30;;;0.95;;
40244;SDS011;25963;42.694;23.600;2023-04-02T09:47:41;1.65;;;0.80;;
40244;SDS011;25963;42.694;23.600;2023-04-02T09:50:14;1.40;;;0.50;;
40244;SDS011;25963;42.694;23.600;2023-04-02T09:52:49;2.45;;;1.20;;
40244;SDS011;25963;42.694;23.600;2023-04-02T09:57:46;1.80;;;0.98;;
40244;SDS011;25963;42.694;23.600;2023-04-02T10:03:00;4.53;;;1.23;;
40244;SDS011;25963;42.694;23.600;2023-04-02T10:05:32;1.65;;;1.27;;
40244;SDS011;25963;42.694;23.600;2023-04-02T10:08:15;3.42;;;1.88;;
40244;SDS011;25963;42.694;23.600;2023-04-02T10:10:42;0.88;;;0.57;;
40244;SDS011;25963;42.694;23.600;2023-04-02T10:15:56;2.77;;;2.27;;
40244;SDS011;25963;42.694;23.600;2023-04-02T10:21:25;3.38;;;2.53;;
40244;SDS011;25963;42.694;23.600;2023-04-02T10:23:53;1.05;;;0.65;;
40244;SDS011;25963;42.694;23.600;2023-04-02T10:32:19;0.70;;;0.40;;
40244;SDS011;25963;42.694;23.600;2023-04-02T10:40:11;2.92;;;1.52;;
40244;SDS011;25963;42.694;23.600;2023-04-02T10:48:44;2.40;;;1.70;;
40244;SDS011;25963;42.694;23.600;2023-04-02T10:54:17;1.00;;;0.45;;
40244;SDS011;25963;42.694;23.600;2023-04-02T11:00:32;1.98;;;0.70;;
40244;SDS011;25963;42.694;23.600;2023-04-02T11:03:05;4.93;;;3.95;;
40244;SDS011;25963;42.694;23.600;2023-04-02T11:08:17;1.10;;;0.93;;
40244;SDS011;25963;42.694;23.600;2023-04-02T11:10:48;2.72;;;1.88;;
40244;SDS011;25963;42.694;23.600;2023-04-02T11:15:57;12.25;;;7.95;;
40244;SDS011;25963;42.694;23.600;2023-04-02T11:18:26;1.40;;;1.27;;
40244;SDS011;25963;42.694;23.600;2023-04-02T11:23:57;1.48;;;0.50;;
40244;SDS011;25963;42.694;23.600;2023-04-02T11:26:38;1.42;;;0.60;;
40244;SDS011;25963;42.694;23.600;2023-04-02T11:31:40;0.40;;;0.40;;
40244;SDS011;25963;42.694;23.600;2023-04-02T11:37:07;0.88;;;0.68;;
40244;SDS011;25963;42.694;23.600;2023-04-02T11:39:53;0.90;;;0.70;;
40244;SDS011;25963;42.694;23.600;2023-04-02T11:42:27;0.73;;;0.70;;
40244;SDS011;25963;42.694;23.600;2023-04-02T11:44:57;0.82;;;0.50;;
40244;SDS011;25963;42.694;23.600;2023-04-02T11:47:42;1.23;;;0.70;;
40244;SDS011;25963;42.694;23.600;2023-04-02T11:50:39;1.48;;;0.75;;
40244;SDS011;25963;42.694;23.600;2023-04-02T11:55:42;2.88;;;0.88;;
40244;SDS011;25963;42.694;23.600;2023-04-02T12:06:46;0.45;;;0.35;;
40244;SDS011;25963;42.694;23.600;2023-04-02T12:12:24;0.70;;;0.70;;
40244;SDS011;25963;42.694;23.600;2023-04-02T12:14:50;0.90;;;0.85;;
40244;SDS011;25963;42.694;23.600;2023-04-02T12:19:58;0.43;;;0.28;;
40244;SDS011;25963;42.694;23.600;2023-04-02T12:22:34;0.90;;;0.40;;
40244;SDS011;25963;42.694;23.600;2023-04-02T12:25:05;0.50;;;0.50;;
40244;SDS011;25963;42.694;23.600;2023-04-02T12:30:29;0.95;;;0.55;;
40244;SDS011;25963;42.694;23.600;2023-04-02T12:32:54;0.80;;;0.50;;
40244;SDS011;25963;42.694;23.600;2023-04-02T12:37:56;0.80;;;0.45;;
40244;SDS011;25963;42.694;23.600;2023-04-02T12:40:22;0.60;;;0.40;;
40244;SDS011;25963;42.694;23.600;2023-04-02T12:42:48;1.33;;;0.47;;
40244;SDS011;25963;42.694;23.600;2023-04-02T12:45:47;0.75;;;0.40;;
40244;SDS011;25963;42.694;23.600;2023-04-02T12:48:08;1.70;;;1.10;;
40244;SDS011;25963;42.694;23.600;2023-04-02T12:50:35;4.05;;;1.92;;
40244;SDS011;25963;42.694;23.600;2023-04-02T12:53:03;2.20;;;0.50;;
40244;SDS011;25963;42.694;23.600;2023-04-02T12:55:45;0.70;;;0.40;;
40244;SDS011;25963;42.694;23.600;2023-04-02T12:58:28;0.82;;;0.50;;
40244;SDS011;25963;42.694;23.600;2023-04-02T13:03:43;0.70;;;0.50;;
40244;SDS011;25963;42.694;23.600;2023-04-02T13:06:23;2.50;;;1.40;;
40244;SDS011;25963;42.694;23.600;2023-04-02T13:08:50;4.22;;;2.90;;
40244;SDS011;25963;42.694;23.600;2023-04-02T13:11:17;2.80;;;1.67;;
40244;SDS011;25963;42.694;23.600;2023-04-02T13:13:43;1.50;;;0.85;;
40244;SDS011;25963;42.694;23.600;2023-04-02T13:18:42;0.65;;;0.40;;
40244;SDS011;25963;42.694;23.600;2023-04-02T13:23:40;2.17;;;0.80;;
40244;SDS011;25963;42.694;23.600;2023-04-02T13:31:19;6.20;;;2.45;;
40244;SDS011;25963;42.694;23.600;2023-04-02T13:33:45;3.22;;;1.83;;
40244;SDS011;25963;42.694;23.600;2023-04-02T13:36:13;2.13;;;0.93;;
40244;SDS011;25963;42.694;23.600;2023-04-02T13:38:39;1.73;;;0.70;;
40244;SDS011;25963;42.694;23.600;2023-04-02T13:41:09;2.83;;;2.10;;
40244;SDS011;25963;42.694;23.600;2023-04-02T13:43:49;1.02;;;0.73;;
40244;SDS011;25963;42.694;23.600;2023-04-02T13:46:16;1.73;;;0.40;;
40244;SDS011;25963;42.694;23.600;2023-04-02T13:48:46;1.13;;;0.70;;
40244;SDS011;25963;42.694;23.600;2023-04-02T13:51:14;3.70;;;2.63;;
40244;SDS011;25963;42.694;23.600;2023-04-02T13:53:42;9.52;;;5.43;;
40244;SDS011;25963;42.694;23.600;2023-04-02T13:56:09;4.72;;;2.67;;
40244;SDS011;25963;42.694;23.600;2023-04-02T13:58:35;12.63;;;7.53;;
40244;SDS011;25963;42.694;23.600;2023-04-02T14:01:00;5.70;;;2.55;;
40244;SDS011;25963;42.694;23.600;2023-04-02T14:03:26;3.53;;;1.88;;
40244;SDS011;25963;42.694;23.600;2023-04-02T14:30:16;2.15;;;1.17;;
40244;SDS011;25963;42.694;23.600;2023-04-02T14:35:30;2.05;;;1.85;;
40244;SDS011;25963;42.694;23.600;2023-04-02T14:40:56;1.90;;;1.70;;
40244;SDS011;25963;42.694;23.600;2023-04-02T14:43:30;2.63;;;0.70;;
40244;SDS011;25963;42.694;23.600;2023-04-02T14:46:08;6.45;;;0.90;;
40244;SDS011;25963;42.694;23.600;2023-04-02T14:53:51;1.48;;;0.75;;
40244;SDS011;25963;42.694;23.600;2023-04-02T14:56:24;0.77;;;0.70;;
40244;SDS011;25963;42.694;23.600;2023-04-02T14:58:53;1.45;;;1.08;;
40244;SDS011;25963;42.694;23.600;2023-04-02T15:01:30;2.38;;;0.63;;
40244;SDS011;25963;42.694;23.600;2023-04-02T15:04:06;0.55;;;0.30;;
40244;SDS011;25963;42.694;23.600;2023-04-02T15:06:40;0.85;;;0.45;;
40244;SDS011;25963;42.694;23.600;2023-04-02T15:09:33;4.10;;;1.20;;
40244;SDS011;25963;42.694;23.600;2023-04-02T15:12:08;1.92;;;0.77;;
40244;SDS011;25963;42.694;23.600;2023-04-02T15:14:45;2.70;;;0.50;;
40244;SDS011;25963;42.694;23.600;2023-04-02T15:17:15;0.47;;;0.47;;
40244;SDS011;25963;42.694;23.600;2023-04-02T15:19:40;1.38;;;0.50;;
40244;SDS011;25963;42.694;23.600;2023-04-02T15:22:14;0.55;;;0.43;;
40244;SDS011;25963;42.694;23.600;2023-04-02T15:25:03;0.20;;;0.20;;
40244;SDS011;25963;42.694;23.600;2023-04-02T15:30:57;2.63;;;0.77;;
40244;SDS011;25963;42.694;23.600;2023-04-02T15:33:39;0.30;;;0.30;;
40244;SDS011;25963;42.694;23.600;2023-04-02T15:41:40;1.35;;;0.60;;
40244;SDS011;25963;42.694;23.600;2023-04-02T15:44:14;2.25;;;0.30;;
40244;SDS011;25963;42.694;23.600;2023-04-02T15:53:03;0.50;;;0.30;;
40244;SDS011;25963;42.694;23.600;2023-04-02T15:59:32;0.65;;;0.30;;
40244;SDS011;25963;42.694;23.600;2023-04-02T16:01:52;2.55;;;1.17;;
40244;SDS011;25963;42.694;23.600;2023-04-02T16:07:36;6.53;;;2.47;;
40244;SDS011;25963;42.694;23.600;2023-04-02T16:13:01;3.58;;;1.38;;
40244;SDS011;25963;42.694;23.600;2023-04-02T16:15:50;1.50;;;0.70;;
40244;SDS011;25963;42.694;23.600;2023-04-02T16:18:35;1.33;;;0.70;;
40244;SDS011;25963;42.694;23.600;2023-04-02T16:21:21;3.65;;;1.55;;
40244;SDS011;25963;42.694;23.600;2023-04-02T16:23:51;2.40;;;1.58;;
40244;SDS011;25963;42.694;23.600;2023-04-02T16:28:57;4.97;;;1.05;;
40244;SDS011;25963;42.694;23.600;2023-04-02T16:39:47;3.35;;;1.75;;
40244;SDS011;25963;42.694;23.600;2023-04-02T16:45:58;1.15;;;0.90;;
40244;SDS011;25963;42.694;23.600;2023-04-02T16:48:37;4.38;;;1.88;;
40244;SDS011;25963;42.694;23.600;2023-04-02T16:51:17;5.35;;;2.80;;
40244;SDS011;25963;42.694;23.600;2023-04-02T16:54:02;18.27;;;8.43;;
40244;SDS011;25963;42.694;23.600;2023-04-02T16:56:52;17.03;;;5.27;;
40244;SDS011;25963;42.694;23.600;2023-04-02T16:59:53;19.17;;;7.78;;
40244;SDS011;25963;42.694;23.600;2023-04-02T17:13:00;9.57;;;4.45;;
40244;SDS011;25963;42.694;23.600;2023-04-02T17:15:37;12.38;;;5.60;;
40244;SDS011;25963;42.694;23.600;2023-04-02T17:18:16;19.73;;;11.85;;
40244;SDS011;25963;42.694;23.600;2023-04-02T17:20:44;6.38;;;5.18;;
40244;SDS011;25963;42.694;23.600;2023-04-02T17:23:11;6.32;;;1.70;;
40244;SDS011;25963;42.694;23.600;2023-04-02T17:25:39;4.43;;;3.72;;
40244;SDS011;25963;42.694;23.600;2023-04-02T17:28:11;5.93;;;2.30;;
40244;SDS011;25963;42.694;23.600;2023-04-02T17:30:44;8.32;;;4.93;;
40244;SDS011;25963;42.694;23.600;2023-04-02T17:33:14;18.40;;;8.65;;
40244;SDS011;25963;42.694;23.600;2023-04-02T17:40:50;18.75;;;9.13;;
40244;SDS011;25963;42.694;23.600;2023-04-02T18:14:46;14.05;;;8.32;;
40244;SDS011;25963;42.694;23.600;2023-04-02T18:20:10;55.03;;;22.85;;
40244;SDS011;25963;42.694;23.600;2023-04-02T18:22:55;98.82;;;39.10;;
40244;SDS011;25963;42.694;23.600;2023-04-02T18:25:34;136.50;;;46.63;;
40244;SDS011;25963;42.694;23.600;2023-04-02T18:36:15;30.45;;;16.60;;
40244;SDS011;25963;42.694;23.600;2023-04-02T18:39:00;11.75;;;6.85;;
40244;SDS011;25963;42.694;23.600;2023-04-02T18:46:42;51.05;;;19.60;;
40244;SDS011;25963;42.694;23.600;2023-04-02T18:49:25;36.78;;;15.27;;
40244;SDS011;25963;42.694;23.600;2023-04-02T18:51:53;28.08;;;11.60;;
40244;SDS011;25963;42.694;23.600;2023-04-02T18:54:30;46.17;;;19.75;;
40244;SDS011;25963;42.694;23.600;2023-04-02T18:56:59;9.63;;;5.70;;
40244;SDS011;25963;42.694;23.600;2023-04-02T18:59:40;19.75;;;9.35;;
40244;SDS011;25963;42.694;23.600;2023-04-02T19:05:07;30.52;;;13.82;;
40244;SDS011;25963;42.694;23.600;2023-04-02T19:07:43;23.23;;;11.35;;
40244;SDS011;25963;42.694;23.600;2023-04-02T19:10:32;44.70;;;17.92;;
40244;SDS011;25963;42.694;23.600;2023-04-02T19:13:21;113.35;;;40.67;;
40244;SDS011;25963;42.694;23.600;2023-04-02T19:24:31;15.45;;;8.15;;
40244;SDS011;25963;42.694;23.600;2023-04-02T19:35:54;10.48;;;6.72;;
40244;SDS011;25963;42.694;23.600;2023-04-02T19:44:12;6.38;;;3.83;;
40244;SDS011;25963;42.694;23.600;2023-04-02T19:46:39;6.45;;;3.50;;
40244;SDS011;25963;42.694;23.600;2023-04-02T19:51:40;53.83;;;22.00;;
40244;SDS011;25963;42.694;23.600;2023-04-02T19:54:09;44.03;;;18.92;;
40244;SDS011;25963;42.694;23.600;2023-04-02T19:56:35;30.25;;;15.73;;
40244;SDS011;25963;42.694;23.600;2023-04-02T19:59:00;22.80;;;10.60;;
40244;SDS011;25963;42.694;23.600;2023-04-02T20:01:26;10.98;;;6.32;;
40244;SDS011;25963;42.694;23.600;2023-04-02T20:03:51;12.02;;;6.30;;
40244;SDS011;25963;42.694;23.600;2023-04-02T20:06:17;22.08;;;11.30;;
40244;SDS011;25963;42.694;23.600;2023-04-02T20:08:42;21.85;;;11.68;;
40244;SDS011;25963;42.694;23.600;2023-04-02T20:11:09;14.25;;;7.90;;
40244;SDS011;25963;42.694;23.600;2023-04-02T20:13:34;10.50;;;6.60;;
40244;SDS011;25963;42.694;23.600;2023-04-02T20:16:00;10.82;;;6.70;;
40244;SDS011;25963;42.694;23.600;2023-04-02T20:18:27;7.60;;;5.43;;
40244;SDS011;25963;42.694;23.600;2023-04-02T20:20:54;8.45;;;6.28;;
40244;SDS011;25963;42.694;23.600;2023-04-02T20:23:19;10.85;;;6.70;;
40244;SDS011;25963;42.694;23.600;2023-04-02T20:25:45;17.10;;;7.70;;
40244;SDS011;25963;42.694;23.600;2023-04-02T20:28:20;7.22;;;4.88;;
40244;SDS011;25963;42.694;23.600;2023-04-02T20:30:46;8.88;;;5.53;;
40244;SDS011;25963;42.694;23.600;2023-04-02T20:33:15;8.73;;;4.97;;
40244;SDS011;25963;42.694;23.600;2023-04-02T20:35:41;9.38;;;4.75;;
40244;SDS011;25963;42.694;23.600;2023-04-02T20:38:07;39.22;;;19.27;;
40244;SDS011;25963;42.694;23.600;2023-04-02T20:40:33;15.95;;;8.98;;
40244;SDS011;25963;42.694;23.600;2023-04-02T20:42:58;15.57;;;8.10;;
40244;SDS011;25963;42.694;23.600;2023-04-02T20:45:24;12.88;;;5.82;;
40244;SDS011;25963;42.694;23.600;2023-04-02T20:47:53;7.05;;;4.93;;
40244;SDS011;25963;42.694;23.600;2023-04-02T20:50:18;12.13;;;4.97;;
40244;SDS011;25963;42.694;23.600;2023-04-02T20:52:43;8.77;;;4.85;;
40244;SDS011;25963;42.694;23.600;2023-04-02T20:55:09;7.65;;;4.53;;
40244;SDS011;25963;42.694;23.600;2023-04-02T20:57:35;9.00;;;4.28;;
40244;SDS011;25963;42.694;23.600;2023-04-02T21:00:00;7.22;;;4.80;;